Time;durP1;ratioP1;P1;durP2;ratioP2;P2;SDS_P1;SDS_P2;PMS_P1;PMS_P2;Temp;Humidity;BMP_temperature;BMP_pressure;BME280_temperature;BME280_humidity;BME280_pressure;Samples;Min_cycle;Max_cycle;Signal;HPM_P1;HPM_P2
2021/01/28 00:03:49;;;;;;;18.42;8.35;;;;;;;3.96;49.72;98082.59;10460871;28;20045;-50
2021/01/28 00:08:50;;;;;;;16.55;8.73;;;;;;;3.99;49.20;98088.34;10460852;28;20490;-54
2021/01/28 00:13:52;;;;;;;15.63;7.32;;;;;;;3.96;49.76;98080.81;10460992;28;20049;-52
2021/01/28 00:18:55;;;;;;;17.88;8.20;;;;;;;3.94;49.67;98074.91;10461292;28;20134;-50
2021/01/28 00:23:57;;;;;;;20.63;8.97;;;;;;;3.92;49.68;98069.03;10459965;28;20059;-51
2021/01/28 00:28:58;;;;;;;17.58;8.80;;;;;;;3.93;49.45;98071.47;10463705;28;20118;-53
2021/01/28 00:34:01;;;;;;;20.13;9.30;;;;;;;3.96;49.77;98061.78;10462273;28;20099;-52
2021/01/28 00:39:04;;;;;;;20.63;9.10;;;;;;;3.92;50.05;98067.25;10459743;28;20053;-52
2021/01/28 00:44:06;;;;;;;20.73;8.93;;;;;;;3.96;49.65;98065.19;10459789;28;20250;-51
2021/01/28 00:49:09;;;;;;;17.17;8.60;;;;;;;4.03;49.64;98058.53;10458823;28;20072;-51
2021/01/28 00:54:11;;;;;;;15.57;7.93;;;;;;;4.10;49.73;98054.47;10459111;28;20072;-51
2021/01/28 00:59:12;;;;;;;16.83;7.65;;;;;;;4.12;49.57;98057.75;10458815;28;20061;-50
2021/01/28 01:04:17;;;;;;;19.73;8.98;;;;;;;4.25;50.03;98078.34;10458496;28;20103;-50
2021/01/28 01:09:19;;;;;;;21.52;9.13;;;;;;;4.32;49.47;98078.66;10458916;28;20053;-49
2021/01/28 01:14:27;;;;;;;28.90;10.95;;;;;;;4.38;49.87;98080.72;10458023;28;20045;-51
2021/01/28 01:19:31;;;;;;;84.15;17.80;;;;;;;4.46;49.95;98070.47;10457550;28;20473;-51
2021/01/28 01:24:49;;;;;;;21.92;8.82;;;;;;;4.41;49.87;98067.47;10458592;28;20079;-51
2021/01/28 01:29:51;;;;;;;32.33;11.27;;;;;;;4.34;50.26;98058.50;10457733;28;20063;-51
2021/01/28 01:34:58;;;;;;;21.25;9.35;;;;;;;4.50;50.10;98060.66;10457167;28;20469;-52
2021/01/28 01:40:01;;;;;;;22.23;9.05;;;;;;;4.59;49.32;98050.25;10457248;28;20053;-50
2021/01/28 01:45:09;;;;;;;28.58;9.90;;;;;;;4.63;49.71;98044.78;10459870;28;20098;-51
2021/01/28 01:50:31;;;;;;;21.02;9.00;;;;;;;4.55;49.24;98033.25;10466583;28;20492;-50
2021/01/28 01:55:34;;;;;;;18.70;8.55;;;;;;;4.58;49.72;98035.56;10465481;28;20505;-50
2021/01/28 02:00:48;;;;;;;20.92;8.32;;;;;;;4.64;49.83;98033.41;10464658;28;20091;-51
2021/01/28 02:06:08;;;;;;;20.25;8.45;;;;;;;4.68;49.66;98021.75;10465052;28;20139;-50
2021/01/28 02:11:47;;;;;;;19.52;7.20;;;;;;;4.66;49.67;98029.72;10465634;28;20053;-51
2021/01/28 02:17:22;;;;;;;14.63;6.82;;;;;;;4.65;50.21;98019.44;10469574;28;20483;-52
2021/01/28 02:22:50;;;;;;;16.50;7.75;;;;;;;4.58;50.28;98025.16;10464692;28;20052;-50
2021/01/28 02:27:59;;;;;;;20.85;8.52;;;;;;;4.55;50.25;98029.81;10466111;28;20474;-51
2021/01/28 02:33:12;;;;;;;22.27;8.30;;;;;;;4.59;50.33;98034.63;10465225;28;20052;-50
2021/01/28 02:38:35;;;;;;;21.27;9.77;;;;;;;4.52;50.40;98032.69;10463590;28;20117;-50
2021/01/28 02:43:43;;;;;;;23.63;9.63;;;;;;;4.32;50.85;98026.63;10464243;28;20507;-52
2021/01/28 02:49:20;;;;;;;21.75;9.35;;;;;;;4.32;50.44;98021.41;10463881;28;20049;-52
2021/01/28 02:54:28;;;;;;;23.65;9.00;;;;;;;4.34;50.40;98024.69;10464900;28;20060;-51
2021/01/28 02:59:31;;;;;;;17.08;8.27;;;;;;;4.35;50.25;98031.56;10463067;28;20068;-49
2021/01/28 03:04:33;;;;;;;20.93;9.30;;;;;;;4.37;50.49;98029.63;10479691;28;20049;-50
2021/01/28 03:09:49;;;;;;;20.25;10.80;;;;;;;4.32;50.91;98027.44;10462077;28;20064;-49
2021/01/28 03:15:11;;;;;;;20.42;8.43;;;;;;;4.24;50.94;98019.47;10499589;28;20070;-50
2021/01/28 03:20:20;;;;;;;18.30;8.88;;;;;;;4.39;50.32;98009.53;10502665;28;20076;-52
2021/01/28 03:25:22;;;;;;;15.07;7.90;;;;;;;4.48;50.52;98010.50;10503231;28;20508;-51
2021/01/28 03:30:30;;;;;;;16.75;8.27;;;;;;;4.37;50.67;97999.25;10502888;28;20061;-50
2021/01/28 03:35:33;;;;;;;16.98;8.88;;;;;;;4.37;50.17;98004.47;10502485;28;20090;-51
2021/01/28 03:40:40;;;;;;;15.10;7.70;;;;;;;4.31;50.36;97998.94;10502760;28;20157;-49
2021/01/28 03:45:44;;;;;;;17.08;7.82;;;;;;;4.13;50.51;98002.19;10502618;28;20055;-49
2021/01/28 03:50:46;;;;;;;19.93;9.03;;;;;;;3.91;51.07;97997.19;10502208;28;20060;-50
2021/01/28 03:56:08;;;;;;;18.35;9.45;;;;;;;3.86;52.09;97992.38;10502822;28;20377;-49
2021/01/28 04:01:12;;;;;;;19.13;9.90;;;;;;;3.81;51.86;97978.13;10502242;28;20066;-49
2021/01/28 04:06:16;;;;;;;20.73;10.60;;;;;;;3.63;52.65;97983.94;10499067;28;20473;-49
2021/01/28 04:11:35;;;;;;;20.83;9.70;;;;;;;3.46;52.77;97974.94;10495326;28;20056;-49
2021/01/28 04:16:51;;;;;;;26.67;10.77;;;;;;;3.34;53.94;97972.53;10495998;28;20040;-52
2021/01/28 04:21:53;;;;;;;23.00;11.30;;;;;;;3.34;53.62;97967.34;10496883;28;20052;-50
2021/01/28 04:26:55;;;;;;;23.15;11.27;;;;;;;3.35;53.42;97969.00;10496637;28;20040;-49
2021/01/28 04:32:15;;;;;;;21.48;11.00;;;;;;;3.33;53.60;97965.72;10502297;28;20048;-50
2021/01/28 04:37:38;;;;;;;26.13;10.55;;;;;;;3.16;54.30;97962.72;10497323;28;20056;-53
2021/01/28 04:42:46;;;;;;;17.65;8.68;;;;;;;3.08;54.91;97957.34;10500945;28;20048;-51
2021/01/28 04:47:57;;;;;;;22.30;11.18;;;;;;;3.09;55.01;97961.59;10500038;28;20113;-52
2021/01/28 04:53:31;;;;;;;22.92;11.27;;;;;;;3.14;55.01;97949.06;10500669;28;20129;-50
2021/01/28 04:58:47;;;;;;;27.35;11.45;;;;;;;3.18;54.71;97953.03;10500536;28;20060;-51
2021/01/28 05:03:57;;;;;;;31.25;12.90;;;;;;;3.12;55.37;97958.75;10499753;28;20052;-52
2021/01/28 05:09:18;;;;;;;32.63;14.80;;;;;;;3.16;54.84;97952.34;10500749;28;20512;-53
2021/01/28 05:14:49;;;;;;;32.05;17.10;;;;;;;3.17;55.10;97954.00;10499094;28;20060;-50
2021/01/28 05:20:14;;;;;;;31.90;14.35;;;;;;;3.18;55.59;97962.59;10498424;28;20477;-52
2021/01/28 05:25:40;;;;;;;30.45;14.57;;;;;;;3.25;55.50;97949.94;10499136;28;20051;-51
2021/01/28 05:30:53;;;;;;;20.55;10.40;;;;;;;3.20;56.20;97945.97;10498965;28;20048;-51
2021/01/28 05:36:16;;;;;;;24.85;11.57;;;;;;;3.11;56.01;97945.88;10497670;28;20127;-54
2021/01/28 05:41:43;;;;;;;24.38;11.35;;;;;;;3.07;56.51;97932.31;10458160;28;20107;-52
2021/01/28 05:47:00;;;;;;;27.85;11.35;;;;;;;3.07;56.89;97929.72;10458394;28;20144;-51
2021/01/28 05:52:28;;;;;;;24.08;11.38;;;;;;;3.05;57.63;97930.81;10457527;28;20053;-50
2021/01/28 05:57:49;;;;;;;23.75;10.23;;;;;;;3.03;57.70;97930.94;10457532;28;20083;-53
2021/01/28 06:03:36;;;;;;;18.48;8.55;;;;;;;3.13;57.55;97928.41;10456668;28;20121;-52
2021/01/28 06:09:12;;;;;;;22.67;10.32;;;;;;;3.09;57.73;97922.66;10443083;28;20057;-51
2021/01/28 06:14:54;;;;;;;18.40;8.90;;;;;;;3.13;57.72;97920.63;10457121;28;20048;-50
2021/01/28 06:21:14;;;;;;;16.38;7.53;;;;;;;3.18;57.80;97921.88;10461493;28;20083;-52
2021/01/28 06:26:41;;;;;;;20.08;9.25;;;;;;;3.19;58.07;97915.72;10456745;28;20072;-50
2021/01/28 06:31:59;;;;;;;21.48;8.10;;;;;;;3.14;58.40;97917.91;10459684;28;20053;-49
2021/01/28 06:37:32;;;;;;;18.58;9.55;;;;;;;3.11;58.90;97907.78;10465176;28;20134;-50
2021/01/28 06:43:10;;;;;;;18.42;8.50;;;;;;;3.28;58.01;97910.72;10480689;28;20056;-53
2021/01/28 06:48:39;;;;;;;18.85;8.88;;;;;;;3.23;58.34;97909.34;10464797;28;20088;-52
2021/01/28 06:54:03;;;;;;;19.67;9.13;;;;;;;3.27;58.64;97915.09;10465733;28;20045;-51
2021/01/28 06:59:40;;;;;;;17.52;6.95;;;;;;;3.33;58.50;97899.00;10464701;28;20049;-52
2021/01/28 07:04:52;;;;;;;17.73;7.53;;;;;;;3.40;58.66;97889.72;10463045;28;20106;-50
2021/01/28 07:10:06;;;;;;;18.80;8.43;;;;;;;3.49;58.81;97888.13;10462631;28;20055;-52
2021/01/28 07:15:28;;;;;;;17.30;7.40;;;;;;;3.55;58.77;97882.41;10462967;28;20057;-51
2021/01/28 07:20:40;;;;;;;14.57;6.70;;;;;;;3.50;58.93;97876.78;10463475;28;20084;-49
2021/01/28 07:25:53;;;;;;;;;;;;;;;3.46;59.62;97870.22;10461995;28;20056;-52
2021/01/28 07:31:23;;;;;;;18.52;8.40;;;;;;;3.41;59.69;97864.56;10462410;28;20436;-50
2021/01/28 07:36:44;;;;;;;20.92;9.05;;;;;;;3.45;59.35;97860.78;10462506;28;20037;-51
2021/01/28 07:42:09;;;;;;;17.42;6.88;;;;;;;3.48;59.45;97855.31;10461373;28;20393;-50
2021/01/28 07:47:49;;;;;;;19.13;8.05;;;;;;;3.47;59.86;97844.09;10462027;28;20481;-51
2021/01/28 07:52:52;;;;;;;15.70;7.43;;;;;;;3.49;59.62;97843.97;10461605;28;20056;-52
2021/01/28 07:57:55;;;;;;;15.63;7.63;;;;;;;3.53;59.33;97836.72;10461288;28;20136;-51
2021/01/28 08:03:05;;;;;;;17.10;8.10;;;;;;;3.47;59.61;97838.06;10462589;28;20048;-51
2021/01/28 08:08:08;;;;;;;21.08;8.68;;;;;;;3.51;59.84;97831.69;10464108;28;20303;-52
2021/01/28 08:13:22;;;;;;;15.50;6.95;;;;;;;3.58;60.20;97832.78;10463116;28;20050;-50
2021/01/28 08:18:27;;;;;;;17.52;7.57;;;;;;;3.68;59.69;97835.41;10461267;28;20063;-51
2021/01/28 08:23:29;;;;;;;13.82;6.85;;;;;;;3.81;59.77;97824.75;10460160;28;20041;-53
2021/01/28 08:28:35;;;;;;;19.75;8.20;;;;;;;3.84;59.94;97833.09;10460708;28;20477;-51
2021/01/28 08:33:42;;;;;;;19.73;8.27;;;;;;;3.86;60.34;97822.59;10461478;28;20096;-56
2021/01/28 08:38:43;;;;;;;16.20;8.55;;;;;;;4.02;59.82;97822.88;10461021;28;20049;-52
2021/01/28 08:43:45;;;;;;;15.32;6.70;;;;;;;4.06;59.55;97823.44;10459432;28;20537;-51
2021/01/28 08:48:48;;;;;;;12.77;5.93;;;;;;;4.03;60.16;97806.31;10458803;28;20131;-51
2021/01/28 08:53:58;;;;;;;14.63;7.43;;;;;;;4.11;60.01;97806.47;10457510;28;20401;-51
2021/01/28 08:59:03;;;;;;;16.63;7.47;;;;;;;4.22;59.61;97797.72;10459281;28;20049;-51
2021/01/28 09:04:11;;;;;;;11.80;5.18;;;;;;;4.17;60.04;97806.88;10459370;28;20385;-52
2021/01/28 09:09:20;;;;;;;13.00;6.30;;;;;;;4.10;60.70;97793.63;10459051;28;20048;-53
2021/01/28 09:14:32;;;;;;;11.63;6.53;;;;;;;4.07;60.75;97794.69;10458737;28;20596;-50
2021/01/28 09:19:40;;;;;;;14.35;6.90;;;;;;;4.19;60.56;97781.53;10459402;28;20068;-54
2021/01/28 09:24:48;;;;;;;13.48;6.50;;;;;;;4.23;60.22;97785.53;10458864;28;20044;-53
2021/01/28 09:29:51;;;;;;;17.13;8.23;;;;;;;4.27;60.20;97784.28;10458720;28;20132;-54
2021/01/28 09:35:09;;;;;;;17.50;7.55;;;;;;;4.27;60.00;97776.47;10458892;28;20095;-51
2021/01/28 09:40:24;;;;;;;17.50;8.38;;;;;;;4.32;60.33;97767.31;10458239;28;20509;-53
2021/01/28 09:45:27;;;;;;;15.65;7.18;;;;;;;4.38;60.14;97765.94;10458233;28;20095;-52
2021/01/28 09:50:30;;;;;;;14.80;7.65;;;;;;;4.35;60.66;97767.03;10458500;28;20497;-49
2021/01/28 09:55:33;;;;;;;13.57;6.70;;;;;;;4.44;60.48;97759.38;10457401;28;20084;-53
2021/01/28 10:00:35;;;;;;;15.25;7.88;;;;;;;4.51;60.73;97766.47;10457421;28;20143;-51
2021/01/28 10:05:37;;;;;;;14.20;7.25;;;;;;;4.31;61.00;97754.44;10458769;28;20528;-53
2021/01/28 10:10:39;;;;;;;15.18;7.45;;;;;;;4.31;61.08;97744.03;10466454;28;20076;-51
2021/01/28 10:15:41;;;;;;;15.73;7.75;;;;;;;4.31;61.76;97744.03;10465615;28;20064;-50
2021/01/28 10:20:44;;;;;;;15.88;8.98;;;;;;;4.33;61.50;97736.91;10464291;28;20052;-50
2021/01/28 10:25:45;;;;;;;13.07;6.10;;;;;;;4.38;61.30;97737.31;10464880;28;20037;-51
2021/01/28 10:30:47;;;;;;;21.25;8.00;;;;;;;4.31;61.78;97723.22;10464776;28;20063;-50
2021/01/28 10:35:50;;;;;;;14.75;7.75;;;;;;;4.35;61.85;97716.78;10464201;28;20045;-49
2021/01/28 10:40:53;;;;;;;11.18;5.45;;;;;;;4.51;61.17;97709.22;10464374;28;20103;-54
2021/01/28 10:45:55;;;;;;;13.50;6.95;;;;;;;4.54;61.52;97701.13;10463670;28;20103;-50
2021/01/28 10:50:57;;;;;;;12.40;6.13;;;;;;;4.64;61.58;97692.47;10464287;28;20052;-50
2021/01/28 10:55:59;;;;;;;13.43;6.65;;;;;;;4.78;60.92;97689.41;10464375;28;20489;-50
2021/01/28 11:01:01;;;;;;;13.02;6.15;;;;;;;4.85;60.40;97690.47;10463326;28;20523;-51
2021/01/28 11:06:04;;;;;;;15.43;7.70;;;;;;;4.68;60.78;97689.44;10463414;28;20041;-51
2021/01/28 11:11:06;;;;;;;21.75;8.13;;;;;;;4.59;61.08;97680.72;10462342;28;20053;-54
2021/01/28 11:16:08;;;;;;;19.95;9.82;;;;;;;4.48;61.84;97693.88;10463202;28;20072;-50
2021/01/28 11:21:11;;;;;;;18.45;7.95;;;;;;;4.39;61.99;97705.13;10462409;28;20385;-53
2021/01/28 11:26:12;;;;;;;22.23;9.52;;;;;;;4.36;62.37;97698.44;10462312;28;20137;-52
2021/01/28 11:31:14;;;;;;;21.25;9.48;;;;;;;4.32;62.66;97693.66;10462713;28;20083;-53
2021/01/28 11:36:16;;;;;;;19.17;9.55;;;;;;;4.24;62.82;97691.75;10462368;28;20045;-52
2021/01/28 11:41:18;;;;;;;20.23;8.02;;;;;;;4.19;62.95;97685.31;10461654;28;20137;-50
2021/01/28 11:46:20;;;;;;;24.67;10.82;;;;;;;4.29;62.69;97678.34;10462106;28;20037;-53
2021/01/28 11:51:22;;;;;;;24.10;9.10;;;;;;;4.36;62.39;97671.59;10461191;28;20139;-51
2021/01/28 11:56:24;;;;;;;24.00;10.25;;;;;;;4.45;62.26;97662.94;10461798;28;20048;-50
2021/01/28 12:01:28;;;;;;;27.67;10.48;;;;;;;4.37;63.09;97657.63;10460834;28;20065;-52
2021/01/28 12:06:30;;;;;;;22.40;10.00;;;;;;;4.41;62.59;97661.59;10460125;28;20496;-50
2021/01/28 12:11:32;;;;;;;19.35;6.97;;;;;;;4.43;63.05;97654.47;10461536;28;20481;-50
2021/01/28 12:16:34;;;;;;;21.10;9.27;;;;;;;4.37;62.51;97640.25;10460978;28;20055;-51
2021/01/28 12:21:37;;;;;;;20.20;6.78;;;;;;;4.34;63.14;97650.94;10459383;28;20495;-52
2021/01/28 12:26:39;;;;;;;20.55;8.13;;;;;;;4.27;63.31;97643.84;10459149;28;20442;-53
2021/01/28 12:31:40;;;;;;;16.88;7.72;;;;;;;4.22;63.25;97643.44;10462950;28;20114;-49
2021/01/28 12:36:43;;;;;;;13.57;5.30;;;;;;;4.24;63.52;97664.94;10460824;28;20063;-52
2021/01/28 12:41:45;;;;;;;12.85;5.82;;;;;;;4.12;63.31;97646.88;10460316;28;20053;-52
2021/01/28 12:46:47;;;;;;;19.92;8.38;;;;;;;4.19;63.56;97617.72;10459686;28;20131;-51
2021/01/28 12:51:53;;;;;;;14.13;7.63;;;;;;;4.30;63.03;97623.56;10459790;28;20093;-51
2021/01/28 12:56:54;;;;;;;12.98;6.68;;;;;;;4.25;63.27;97636.19;10460614;28;20131;-52
2021/01/28 13:01:56;;;;;;;16.67;6.07;;;;;;;4.13;63.33;97616.53;10459513;28;20064;-55
2021/01/28 13:06:59;;;;;;;17.77;7.30;;;;;;;4.11;63.44;97597.63;10459991;28;20049;-51
2021/01/28 13:12:00;;;;;;;18.27;7.07;;;;;;;4.08;63.48;97590.09;10459397;28;20064;-51
2021/01/28 13:17:02;;;;;;;9.02;4.38;;;;;;;4.14;63.91;97603.34;10458787;28;20394;-53
2021/01/28 13:22:05;;;;;;;24.13;8.27;;;;;;;4.09;64.23;97621.16;10459087;28;20389;-52
2021/01/28 13:27:06;;;;;;;13.93;5.97;;;;;;;4.04;64.17;97612.16;10458252;28;20059;-51
2021/01/28 13:32:08;;;;;;;19.95;8.88;;;;;;;3.88;64.48;97607.53;10458822;28;20067;-51
2021/01/28 13:37:11;;;;;;;18.67;8.93;;;;;;;3.79;65.36;97618.78;10458159;28;20044;-54
2021/01/28 13:42:13;;;;;;;16.05;6.40;;;;;;;3.68;65.19;97606.75;10463306;28;20059;-51
2021/01/28 13:47:15;;;;;;;25.05;9.77;;;;;;;3.69;65.72;97606.63;10466872;28;20040;-54
2021/01/28 13:52:17;;;;;;;17.40;8.10;;;;;;;3.73;65.35;97622.75;10466982;28;20109;-51
2021/01/28 13:57:19;;;;;;;13.05;5.78;;;;;;;3.87;65.54;97621.47;10466479;28;20044;-50
2021/01/28 14:02:21;;;;;;;13.38;5.72;;;;;;;3.93;64.93;97616.53;10466253;28;20057;-51
2021/01/28 14:07:23;;;;;;;10.93;5.07;;;;;;;3.91;65.42;97607.28;10466054;28;20130;-51
2021/01/28 14:12:25;;;;;;;12.23;6.20;;;;;;;3.93;65.57;97605.34;10465303;28;20068;-53
2021/01/28 14:17:27;;;;;;;8.32;4.38;;;;;;;3.94;65.38;97601.75;10465282;28;20470;-51
2021/01/28 14:22:29;;;;;;;10.50;5.15;;;;;;;3.94;65.06;97606.97;10465336;28;20052;-52
2021/01/28 14:27:31;;;;;;;12.15;5.95;;;;;;;3.80;65.33;97597.84;10465631;28;20066;-54
2021/01/28 14:32:33;;;;;;;16.90;5.57;;;;;;;3.87;65.34;97605.88;10467184;28;20044;-53
2021/01/28 14:37:36;;;;;;;12.82;6.07;;;;;;;3.88;65.31;97604.94;10464578;28;20073;-51
2021/01/28 14:42:37;;;;;;;10.93;5.77;;;;;;;3.83;65.77;97627.94;10469304;28;20057;-57
2021/01/28 14:47:39;;;;;;;10.48;4.95;;;;;;;3.88;65.76;97617.94;10464831;28;20087;-51
2021/01/28 14:52:42;;;;;;;14.80;5.97;;;;;;;3.83;65.19;97607.94;10464417;28;20441;-52
2021/01/28 14:57:44;;;;;;;15.73;6.77;;;;;;;3.90;65.62;97600.41;10463689;28;20052;-50
2021/01/28 15:02:46;;;;;;;12.90;6.47;;;;;;;3.81;65.61;97606.44;10463840;28;20078;-51
2021/01/28 15:07:48;;;;;;;16.05;6.50;;;;;;;3.69;65.91;97585.00;10463211;28;20051;-51
2021/01/28 15:12:50;;;;;;;14.05;6.78;;;;;;;3.59;65.92;97587.59;10462884;28;20063;-51
2021/01/28 15:17:51;;;;;;;15.82;6.43;;;;;;;3.61;66.25;97592.69;10462907;28;20041;-53
2021/01/28 15:22:54;;;;;;;14.07;7.40;;;;;;;3.58;66.41;97575.59;10462524;28;20409;-51
2021/01/28 15:27:56;;;;;;;18.02;8.23;;;;;;;3.54;66.60;97578.56;10462014;28;20044;-51
2021/01/28 15:32:57;;;;;;;9.52;4.07;;;;;;;3.45;66.28;97573.28;10462621;28;20512;-53
2021/01/28 15:38:00;;;;;;;15.95;8.18;;;;;;;3.38;67.05;97579.13;10462359;28;20049;-53
2021/01/28 15:43:02;;;;;;;16.13;7.28;;;;;;;3.34;67.35;97562.19;10461882;28;20059;-55
2021/01/28 15:48:06;;;;;;;10.68;4.85;;;;;;;3.31;67.01;97565.88;10473597;28;20133;-51
2021/01/28 15:53:08;;;;;;;7.03;3.70;;;;;;;3.26;67.54;97544.69;10500782;28;20864;-52
2021/01/28 15:58:10;;;;;;;8.77;4.03;;;;;;;3.20;67.47;97545.25;10500300;28;20044;-50
2021/01/28 16:03:12;;;;;;;16.02;5.28;;;;;;;3.27;67.48;97538.56;10462637;28;20477;-50
2021/01/28 16:08:15;;;;;;;13.55;5.88;;;;;;;3.37;67.76;97533.38;10497363;28;20392;-51
2021/01/28 16:13:17;;;;;;;12.27;5.43;;;;;;;3.38;67.09;97529.78;10500350;28;20130;-53
2021/01/28 16:18:19;;;;;;;13.20;6.25;;;;;;;3.44;67.18;97527.47;10498969;28;20067;-50
2021/01/28 16:23:22;;;;;;;13.23;6.90;;;;;;;3.48;67.12;97515.03;10499480;28;20052;-53
2021/01/28 16:28:24;;;;;;;18.33;7.70;;;;;;;3.48;67.71;97512.44;10500654;28;20045;-52
2021/01/28 16:33:25;;;;;;;17.27;7.03;;;;;;;3.52;67.50;97507.78;10501483;28;20097;-50
2021/01/28 16:38:28;;;;;;;18.77;6.53;;;;;;;3.46;67.82;97509.97;10502124;28;20055;-51
2021/01/28 16:43:30;;;;;;;7.95;4.13;;;;;;;3.46;67.75;97515.16;10499675;28;20449;-51
2021/01/28 16:48:31;;;;;;;20.80;9.23;;;;;;;3.49;67.46;97521.84;10496937;28;20041;-50
2021/01/28 16:53:34;;;;;;;16.45;8.18;;;;;;;3.55;67.52;97529.09;10497877;28;20055;-53
2021/01/28 16:58:35;;;;;;;17.60;7.65;;;;;;;3.64;67.96;97533.47;10498760;28;20090;-51
2021/01/28 17:03:37;;;;;;;23.08;8.48;;;;;;;3.66;68.45;97536.75;10499215;28;20374;-50
2021/01/28 17:08:40;;;;;;;27.58;11.07;;;;;;;3.79;68.73;97520.03;10492042;28;20056;-53
2021/01/28 17:13:42;;;;;;;80.57;17.50;;;;;;;3.86;68.77;97514.09;10499429;28;20055;-53
2021/01/28 17:18:44;;;;;;;47.80;13.68;;;;;;;3.84;69.61;97512.59;10497919;28;20052;-53
2021/01/28 17:23:47;;;;;;;63.90;17.85;;;;;;;3.85;69.46;97520.28;10497167;28;20048;-51
2021/01/28 17:28:48;;;;;;;45.75;14.40;;;;;;;3.86;69.95;97540.09;10498202;28;20109;-51
2021/01/28 17:33:50;;;;;;;37.67;12.65;;;;;;;3.96;69.67;97540.06;10498856;28;20072;-51
2021/01/28 17:38:53;;;;;;;19.10;7.70;;;;;;;4.04;69.28;97539.38;10496613;28;20052;-52
2021/01/28 17:43:54;;;;;;;26.92;11.35;;;;;;;4.02;69.34;97536.91;10498052;28;20083;-52
2021/01/28 17:48:56;;;;;;;24.25;11.52;;;;;;;4.10;69.29;97534.41;10495907;28;20044;-52
2021/01/28 17:53:59;;;;;;;28.90;11.18;;;;;;;4.11;69.61;97520.44;10497041;28;20358;-50
2021/01/28 17:59:01;;;;;;;27.40;11.30;;;;;;;4.00;69.81;97528.41;10497037;28;20049;-52
2021/01/28 18:04:06;;;;;;;33.00;9.93;;;;;;;3.92;69.89;97523.94;10497812;28;20082;-50
2021/01/28 18:09:08;;;;;;;22.10;8.98;;;;;;;3.82;69.82;97515.34;10498125;28;20045;-52
2021/01/28 18:14:11;;;;;;;30.40;11.43;;;;;;;3.78;69.94;97513.97;10499549;28;20481;-50
2021/01/28 18:19:12;;;;;;;20.33;8.25;;;;;;;3.80;69.58;97521.66;10496532;28;20190;-52
2021/01/28 18:24:16;;;;;;;21.23;7.47;;;;;;;3.87;70.46;97515.72;10497341;28;20051;-52
2021/01/28 18:29:18;;;;;;;28.45;11.48;;;;;;;3.86;69.62;97502.91;10502978;28;20487;-60
2021/01/28 18:34:19;;;;;;;30.88;13.10;;;;;;;3.83;70.12;97503.19;10505979;28;20544;-51
2021/01/28 18:39:22;;;;;;;33.47;13.00;;;;;;;3.86;69.52;97505.50;10503668;28;20048;-51
2021/01/28 18:44:25;;;;;;;26.75;11.20;;;;;;;3.88;70.05;97500.97;10503539;28;20059;-51
2021/01/28 18:49:27;;;;;;;25.27;11.43;;;;;;;3.90;69.92;97509.44;10501961;28;20048;-50
2021/01/28 18:54:30;;;;;;;34.22;13.07;;;;;;;4.01;69.72;97488.47;10503341;28;20052;-52
2021/01/28 18:59:32;;;;;;;24.83;10.30;;;;;;;4.10;70.01;97490.22;10503179;28;20404;-51
2021/01/28 19:04:34;;;;;;;31.70;12.07;;;;;;;4.08;69.84;97489.53;10502442;28;20060;-51
2021/01/28 19:09:38;;;;;;;25.05;11.80;;;;;;;4.11;69.45;97488.41;10502886;28;20135;-51
2021/01/28 19:14:39;;;;;;;28.02;12.38;;;;;;;4.19;69.48;97482.47;10502857;28;20052;-52
2021/01/28 19:19:42;;;;;;;31.52;13.02;;;;;;;4.28;68.82;97479.84;10502585;28;20072;-52
2021/01/28 19:24:44;;;;;;;27.98;12.13;;;;;;;4.42;68.53;97483.72;10502145;28;20059;-51
2021/01/28 19:29:47;;;;;;;26.63;11.18;;;;;;;4.39;68.43;97477.03;10502223;28;20048;-51
2021/01/28 19:34:48;;;;;;;31.90;13.68;;;;;;;4.36;68.61;97476.50;10501571;28;20040;-50
2021/01/28 19:39:51;;;;;;;31.13;12.93;;;;;;;4.32;68.44;97469.97;10500299;28;20071;-51
2021/01/28 19:44:53;;;;;;;27.20;11.63;;;;;;;4.30;69.08;97482.28;10477766;28;20742;-52
2021/01/28 19:49:55;;;;;;;26.45;11.05;;;;;;;4.23;68.78;97471.66;10497663;28;20044;-51
2021/01/28 19:54:57;;;;;;;33.92;13.80;;;;;;;4.09;69.30;97469.53;10500969;28;20164;-52
2021/01/28 19:59:59;;;;;;;33.55;12.02;;;;;;;4.10;69.26;97455.59;10501287;28;20057;-53
2021/01/28 20:05:01;;;;;;;32.90;14.15;;;;;;;4.09;68.96;97467.75;10474282;28;20049;-50
2021/01/28 20:10:05;;;;;;;27.75;11.05;;;;;;;4.13;68.97;97470.91;10482742;28;20497;-51
2021/01/28 20:15:09;;;;;;;35.75;13.68;;;;;;;4.20;68.88;97464.16;10501326;28;20138;-50
2021/01/28 20:20:13;;;;;;;30.83;12.95;;;;;;;4.18;69.19;97454.84;10500651;28;20048;-50
2021/01/28 20:25:18;;;;;;;34.03;13.25;;;;;;;4.15;68.85;97459.38;10499996;28;20143;-50
2021/01/28 20:30:21;;;;;;;27.55;11.32;;;;;;;4.17;69.10;97446.25;10501372;28;20489;-54
2021/01/28 20:35:25;;;;;;;29.13;11.85;;;;;;;4.15;68.87;97446.38;10502450;28;20045;-50
2021/01/28 20:40:33;;;;;;;27.33;10.85;;;;;;;4.11;69.16;97450.22;10498960;28;20062;-51
2021/01/28 20:45:34;;;;;;;27.55;11.68;;;;;;;4.00;69.39;97440.03;10500107;28;20048;-52
2021/01/28 20:50:37;;;;;;;21.42;9.27;;;;;;;3.89;69.84;97445.44;10497719;28;20109;-51
2021/01/28 20:55:39;;;;;;;32.17;13.75;;;;;;;3.84;69.67;97437.22;10498320;28;20495;-50
2021/01/28 21:00:41;;;;;;;33.13;13.90;;;;;;;3.76;69.56;97440.56;10499215;28;20071;-53
2021/01/28 21:05:43;;;;;;;29.52;12.45;;;;;;;3.69;69.67;97445.50;10497820;28;20469;-52
2021/01/28 21:10:45;;;;;;;37.38;11.93;;;;;;;3.55;70.28;97432.97;10499356;28;20044;-51
2021/01/28 21:15:47;;;;;;;27.80;11.18;;;;;;;3.41;70.46;97444.63;10498077;28;20048;-51
2021/01/28 21:20:49;;;;;;;25.27;10.52;;;;;;;3.33;71.06;97441.13;10497531;28;20531;-50
2021/01/28 21:25:52;;;;;;;29.52;11.88;;;;;;;3.25;70.77;97438.41;10497992;28;20047;-50
2021/01/28 21:30:54;;;;;;;23.60;8.07;;;;;;;3.25;71.09;97438.41;10498424;28;20057;-54
2021/01/28 21:35:56;;;;;;;31.95;12.15;;;;;;;3.25;71.05;97423.63;10497252;28;20371;-52
2021/01/28 21:40:59;;;;;;;27.00;10.18;;;;;;;3.26;70.63;97424.44;10498222;28;20052;-52
2021/01/28 21:46:01;;;;;;;20.97;8.50;;;;;;;3.18;71.17;97428.56;10498124;28;20044;-53
2021/01/28 21:51:03;;;;;;;21.65;10.80;;;;;;;3.12;71.29;97416.16;10496397;28;20155;-54
2021/01/28 21:56:06;;;;;;;26.67;9.60;;;;;;;3.06;71.15;97419.31;10498067;28;20058;-55
2021/01/28 22:01:08;;;;;;;23.17;8.52;;;;;;;2.80;71.21;97413.03;10498577;28;20056;-54
2021/01/28 22:06:11;;;;;;;11.73;4.65;;;;;;;2.79;71.44;97411.41;10504638;28;20553;-52
2021/01/28 22:11:14;;;;;;;4.85;1.92;;;;;;;2.72;71.95;97391.22;10505409;28;20064;-51
2021/01/28 22:16:15;;;;;;;11.98;5.00;;;;;;;2.65;71.52;97394.47;10505077;28;20491;-55
2021/01/28 22:21:17;;;;;;;13.35;4.60;;;;;;;2.65;72.08;97384.94;10503814;28;20496;-52
2021/01/28 22:26:20;;;;;;;10.55;5.20;;;;;;;2.66;71.84;97378.78;10507638;28;20048;-54
2021/01/28 22:31:22;;;;;;;11.10;4.97;;;;;;;2.66;71.97;97399.53;10507323;28;20048;-54
2021/01/28 22:36:24;;;;;;;18.35;6.60;;;;;;;2.79;72.02;97409.63;10505846;28;20041;-56
2021/01/28 22:41:26;;;;;;;16.70;7.07;;;;;;;2.94;71.27;97394.47;10506801;28;20049;-52
2021/01/28 22:46:28;;;;;;;17.13;7.70;;;;;;;2.97;71.63;97402.78;10503518;28;20045;-51
2021/01/28 22:51:30;;;;;;;14.82;6.60;;;;;;;2.86;71.43;97387.34;10502785;28;20057;-51
2021/01/28 22:56:33;;;;;;;15.05;7.32;;;;;;;2.88;71.67;97387.22;10502685;28;20071;-52
2021/01/28 23:01:34;;;;;;;19.83;6.57;;;;;;;2.87;71.49;97388.19;10502735;28;20076;-56
2021/01/28 23:06:36;;;;;;;14.68;6.68;;;;;;;3.02;71.12;97375.56;10503680;28;20128;-53
2021/01/28 23:11:40;;;;;;;17.20;7.20;;;;;;;3.12;70.84;97382.41;10502992;28;20052;-54
2021/01/28 23:16:44;;;;;;;16.58;6.78;;;;;;;3.15;70.86;97368.31;10500994;28;20041;-52
2021/01/28 23:21:46;;;;;;;17.30;7.32;;;;;;;3.15;71.04;97365.72;10502974;28;20504;-54
2021/01/28 23:26:49;;;;;;;21.63;10.45;;;;;;;3.20;70.81;97363.50;10501885;28;20565;-53
2021/01/28 23:31:50;;;;;;;23.08;11.13;;;;;;;3.33;70.23;97358.84;10501128;28;20052;-52
2021/01/28 23:36:52;;;;;;;15.80;7.95;;;;;;;3.33;70.25;97364.03;10501810;28;20045;-52
2021/01/28 23:41:54;;;;;;;33.92;12.63;;;;;;;3.26;70.31;97354.34;10500963;28;20135;-53
2021/01/28 23:46:56;;;;;;;17.23;8.15;;;;;;;3.30;70.65;97345.31;10501139;28;20400;-52